createdAt,value
2018-04-14T00:02:12.637Z,10.80
2018-04-14T00:04:42.184Z,9.70
2018-04-14T00:07:11.723Z,8.80
2018-04-14T00:12:37.763Z,10.13
2018-04-14T00:15:09.824Z,8.60
2018-04-14T00:23:25.132Z,8.20
2018-04-14T00:26:19.201Z,9.97
2018-04-14T00:28:49.702Z,9.57
2018-04-14T00:34:10.812Z,7.23
2018-04-14T00:36:40.299Z,10.50
2018-04-14T00:48:11.126Z,9.20
2018-04-14T00:50:40.341Z,7.77
2018-04-14T00:53:15.386Z,7.47
2018-04-14T00:55:44.846Z,5.83
2018-04-14T00:58:30.488Z,7.13
2018-04-14T01:01:16.811Z,6.37
2018-04-14T01:03:46.362Z,7.57
2018-04-14T01:09:03.209Z,5.87
2018-04-14T01:11:32.714Z,6.00
2018-04-14T01:14:02.203Z,7.60
2018-04-14T01:16:31.750Z,7.63
2018-04-14T01:19:08.763Z,5.37
2018-04-14T01:21:38.277Z,6.20
2018-04-14T01:24:07.828Z,5.30
2018-04-14T01:26:44.356Z,6.50
2018-04-14T01:35:12.753Z,6.20
2018-04-14T01:37:42.433Z,5.40
2018-04-14T01:40:26.005Z,6.47
2018-04-14T01:42:55.577Z,5.87
2018-04-14T01:45:25.144Z,7.27
2018-04-14T01:48:09.685Z,4.77
2018-04-14T01:50:39.161Z,5.30
2018-04-14T01:56:01.400Z,6.20
2018-04-14T02:04:32.642Z,5.23
2018-04-14T02:09:49.225Z,6.27
2018-04-14T02:17:43.549Z,5.60
2018-04-14T02:20:13.097Z,6.23
2018-04-14T02:25:41.359Z,7.20
2018-04-14T02:28:10.872Z,5.00
2018-04-14T02:30:40.357Z,6.00
2018-04-14T02:36:05.943Z,5.53
2018-04-14T02:38:35.393Z,4.90
2018-04-14T02:46:34.356Z,5.90
2018-04-14T02:49:03.854Z,4.23
2018-04-14T02:51:33.375Z,5.50
2018-04-14T02:57:09.325Z,4.77
2018-04-14T02:59:38.821Z,5.23
2018-04-14T03:05:08.998Z,5.40
2018-04-14T03:10:36.086Z,6.03
2018-04-14T03:13:05.635Z,5.30
2018-04-14T03:27:14.435Z,5.53
2018-04-14T03:29:43.945Z,7.57
2018-04-14T03:37:58.091Z,8.23
2018-04-14T03:40:46.463Z,5.93
2018-04-14T03:43:16.006Z,4.87
2018-04-14T03:46:08.616Z,5.10
2018-04-14T04:02:52.606Z,4.20
2018-04-14T04:05:22.287Z,5.17
2018-04-14T04:11:04.281Z,5.07
2018-04-14T04:13:40.662Z,5.90
2018-04-14T04:22:01.286Z,7.50
2018-04-14T04:24:41.724Z,4.77
2018-04-14T04:27:11.205Z,6.23
2018-04-14T04:32:28.866Z,4.30
2018-04-14T04:35:09.337Z,6.27
2018-04-14T04:40:26.478Z,5.60
2018-04-14T04:42:56.009Z,5.93
2018-04-14T05:02:56.519Z,3.93
2018-04-14T05:11:34.590Z,6.80
2018-04-14T05:14:04.106Z,5.13
2018-04-14T05:22:18.758Z,7.37
2018-04-14T05:25:11.523Z,8.30
2018-04-14T05:27:41.057Z,6.57
2018-04-14T05:30:10.563Z,6.17
2018-04-14T05:32:40.068Z,11.50
2018-04-14T05:35:09.659Z,7.60
2018-04-14T05:37:39.205Z,7.57
2018-04-14T05:40:09.778Z,6.70
2018-04-14T05:48:23.637Z,8.77
2018-04-14T05:56:50.454Z,5.47
2018-04-14T05:59:19.009Z,8.50
2018-04-14T06:01:48.505Z,5.20
2018-04-14T06:04:17.142Z,12.40
2018-04-14T06:06:45.613Z,6.37
2018-04-14T06:09:14.198Z,6.43
2018-04-14T06:11:42.712Z,6.03
2018-04-14T06:14:11.708Z,6.13
2018-04-14T06:16:40.169Z,6.87
2018-04-14T06:19:11.641Z,7.87
2018-04-14T06:21:39.846Z,7.90
2018-04-14T06:24:12.068Z,6.73
2018-04-14T06:26:40.826Z,7.70
2018-04-14T06:29:10.248Z,9.50
2018-04-14T06:31:39.759Z,7.63
2018-04-14T06:34:11.252Z,7.50
2018-04-14T06:36:40.940Z,8.93
2018-04-14T06:39:09.586Z,5.53
2018-04-14T06:41:37.931Z,7.87
2018-04-14T06:44:06.479Z,7.23
2018-04-14T06:46:35.116Z,7.93
2018-04-14T06:49:03.622Z,7.40
2018-04-14T06:51:32.070Z,5.40
2018-04-14T06:54:00.669Z,7.70
2018-04-14T06:56:30.487Z,5.93
2018-04-14T06:58:59.090Z,6.47
2018-04-14T07:01:29.801Z,6.00
2018-04-14T07:03:58.337Z,7.33
2018-04-14T07:06:27.914Z,5.80
2018-04-14T07:08:56.412Z,8.23
2018-04-14T07:11:25.826Z,6.47
2018-04-14T07:13:54.838Z,8.30
2018-04-14T07:16:24.167Z,7.03
2018-04-14T07:18:52.696Z,7.63
2018-04-14T07:21:21.219Z,7.77
2018-04-14T07:23:49.743Z,7.53
2018-04-14T07:26:19.626Z,6.33
2018-04-14T07:28:48.252Z,7.53
2018-04-14T07:31:16.767Z,6.50
2018-04-14T07:33:44.928Z,8.63
2018-04-14T07:36:13.648Z,6.20
2018-04-14T07:38:51.868Z,5.83
2018-04-14T07:44:19.333Z,5.97
2018-04-14T07:46:48.933Z,6.50
2018-04-14T07:49:17.467Z,6.17
2018-04-14T07:51:46.761Z,8.00
2018-04-14T07:54:15.318Z,6.10
2018-04-14T07:56:49.021Z,8.57
2018-04-14T07:59:17.487Z,10.10
2018-04-14T08:01:47.159Z,6.80
2018-04-14T08:04:15.643Z,7.70
2018-04-14T08:06:49.335Z,6.60
2018-04-14T08:09:20.066Z,6.83
2018-04-14T08:11:48.697Z,8.40
2018-04-14T08:14:17.477Z,8.73
2018-04-14T08:16:46.050Z,7.00
2018-04-14T08:19:14.668Z,7.47
2018-04-14T08:21:43.423Z,8.23
2018-04-14T08:24:13.097Z,8.30
2018-04-14T08:26:41.572Z,7.30
2018-04-14T08:29:10.195Z,9.23
2018-04-14T08:31:38.774Z,13.60
2018-04-14T08:34:07.302Z,9.80
2018-04-14T08:36:37.206Z,9.57
2018-04-14T08:39:06.695Z,9.73
2018-04-14T08:41:35.401Z,10.57
2018-04-14T08:44:03.956Z,11.00
2018-04-14T08:46:36.273Z,15.60
2018-04-14T08:49:04.755Z,12.40
2018-04-14T08:51:33.459Z,10.83
2018-04-14T08:54:03.215Z,13.57
2018-04-14T08:56:32.948Z,9.93
2018-04-14T08:59:02.458Z,9.30
2018-04-14T09:01:31.979Z,11.93
2018-04-14T09:04:01.477Z,14.40
2018-04-14T09:06:32.132Z,10.63
2018-04-14T09:09:01.680Z,10.70
2018-04-14T09:11:30.173Z,9.80
2018-04-14T09:13:58.716Z,12.10
2018-04-14T09:16:27.225Z,9.97
2018-04-14T09:18:55.698Z,12.80
2018-04-14T09:21:27.558Z,18.03
2018-04-14T09:23:55.995Z,12.90
2018-04-14T09:26:24.751Z,13.50
2018-04-14T09:28:53.409Z,14.97
2018-04-14T09:31:22.627Z,12.20
2018-04-14T09:33:51.125Z,10.97
2018-04-14T09:36:20.415Z,13.47
2018-04-14T09:38:49.002Z,10.93
2018-04-14T09:41:17.602Z,20.77
2018-04-14T09:43:46.948Z,24.83
2018-04-14T09:46:15.833Z,22.40
2018-04-14T09:48:44.357Z,21.10
2018-04-14T09:51:12.928Z,23.10
2018-04-14T09:53:42.279Z,21.13
2018-04-14T09:56:10.457Z,19.43
2018-04-14T09:58:38.958Z,23.07
2018-04-14T10:01:12.777Z,24.20
2018-04-14T10:06:47.930Z,19.97
2018-04-14T10:12:13.110Z,21.93
2018-04-14T10:14:49.796Z,18.93
2018-04-14T10:17:20.663Z,18.53
2018-04-14T10:22:33.963Z,16.33
2018-04-14T10:25:02.694Z,11.50
2018-04-14T10:27:32.908Z,10.53
2018-04-14T10:30:12.901Z,10.30
2018-04-14T10:32:41.604Z,12.30
2018-04-14T10:35:11.571Z,6.30
2018-04-14T10:43:46.664Z,6.20
2018-04-14T10:46:19.457Z,17.30
2018-04-14T10:48:51.207Z,9.67
2018-04-14T10:51:21.433Z,8.17
2018-04-14T10:53:55.640Z,7.27
2018-04-14T10:56:27.054Z,6.40
2018-04-14T10:58:55.536Z,6.30
2018-04-14T11:01:24.062Z,8.80
2018-04-14T11:03:56.186Z,7.80
2018-04-14T11:06:24.923Z,6.80
2018-04-14T11:11:32.353Z,4.97
2018-04-14T11:14:01.608Z,7.93
2018-04-14T11:16:30.076Z,6.33
2018-04-14T11:21:51.602Z,4.90
2018-04-14T11:24:19.861Z,6.97
2018-04-14T11:26:48.507Z,7.17
2018-04-14T11:29:17.740Z,5.70
2018-04-14T11:31:46.374Z,4.73
2018-04-14T11:34:15.958Z,5.60
2018-04-14T11:36:46.296Z,9.07
2018-04-14T11:39:17.052Z,6.03
2018-04-14T11:41:45.549Z,5.87
2018-04-14T11:44:14.045Z,5.10
2018-04-14T11:46:42.795Z,10.20
2018-04-14T11:49:11.575Z,5.07
2018-04-14T11:51:40.062Z,6.87
2018-04-14T11:54:08.573Z,5.30
2018-04-14T11:56:37.040Z,5.20
2018-04-14T11:59:05.557Z,3.60
2018-04-14T12:01:34.027Z,4.70
2018-04-14T12:04:02.631Z,4.30
2018-04-14T12:06:33.265Z,6.20
2018-04-14T12:09:03.771Z,4.57
2018-04-14T12:11:33.990Z,5.20
2018-04-14T12:14:02.594Z,6.93
2018-04-14T12:16:39.680Z,5.60
2018-04-14T12:19:11.687Z,11.17
2018-04-14T12:21:40.193Z,5.87
2018-04-14T12:24:19.545Z,6.20
2018-04-14T12:26:51.477Z,6.00
2018-04-14T12:29:20.788Z,5.80
2018-04-14T12:31:49.266Z,5.47
2018-04-14T12:34:17.414Z,9.03
2018-04-14T12:36:45.598Z,5.87
2018-04-14T12:39:14.071Z,3.50
2018-04-14T12:41:42.567Z,21.67
2018-04-14T12:44:13.609Z,20.77
2018-04-14T12:46:42.001Z,5.27
2018-04-14T12:49:10.542Z,8.97
2018-04-14T12:51:39.214Z,3.23
2018-04-14T12:54:07.795Z,3.03
2018-04-14T12:56:43.239Z,4.00
2018-04-14T12:59:11.840Z,3.40
2018-04-14T13:01:40.407Z,4.03
2018-04-14T13:04:08.894Z,51.93
2018-04-14T13:06:37.429Z,43.27
2018-04-14T13:09:06.769Z,50.23
2018-04-14T13:11:50.718Z,48.30
2018-04-14T13:14:20.400Z,54.93
2018-04-14T13:19:24.428Z,63.60
2018-04-14T13:21:54.174Z,65.20
2018-04-14T13:24:23.541Z,66.67
2018-04-14T13:26:53.123Z,64.00
2018-04-14T13:29:22.075Z,57.53
2018-04-14T13:31:51.484Z,70.30
2018-04-14T13:34:21.333Z,54.17
2018-04-14T13:36:52.078Z,62.70
2018-04-14T13:42:25.771Z,59.10
2018-04-14T13:44:54.599Z,58.90
2018-04-14T13:47:35.979Z,52.87
2018-04-14T13:50:04.526Z,60.17
2018-04-14T13:52:32.980Z,61.10
2018-04-14T13:55:02.288Z,59.83
2018-04-14T13:57:55.614Z,63.80
2018-04-14T14:00:25.045Z,59.63
2018-04-14T14:02:54.841Z,59.43
2018-04-14T14:05:23.824Z,56.30
2018-04-14T14:07:52.399Z,60.20
2018-04-14T14:10:21.879Z,71.33
2018-04-14T14:12:50.449Z,79.13
2018-04-14T14:15:37.467Z,74.93
2018-04-14T14:18:07.378Z,78.10
2018-04-14T14:20:37.109Z,68.10
2018-04-14T14:23:08.060Z,67.70
2018-04-14T14:25:36.627Z,67.17
2018-04-14T14:28:05.185Z,67.50
2018-04-14T14:30:37.334Z,75.40
2018-04-14T14:33:05.787Z,70.20
2018-04-14T14:35:34.199Z,73.70
2018-04-14T14:38:02.622Z,69.47
2018-04-14T14:43:15.735Z,68.00
2018-04-14T14:45:44.264Z,75.63
2018-04-14T14:48:12.904Z,77.07
2018-04-14T14:50:41.464Z,82.30
2018-04-14T14:53:10.866Z,68.10
2018-04-14T14:55:39.390Z,73.00
2018-04-14T14:58:08.178Z,75.10
2018-04-14T15:00:36.798Z,75.30
2018-04-14T15:03:07.250Z,68.87
2018-04-14T15:05:35.786Z,73.73
2018-04-14T15:08:04.219Z,64.77
2018-04-14T15:10:32.683Z,72.77
2018-04-14T15:13:00.888Z,68.87
2018-04-14T15:15:29.394Z,74.67
2018-04-14T15:17:57.903Z,74.43
2018-04-14T15:20:26.447Z,66.33
2018-04-14T15:22:54.982Z,66.20
2018-04-14T15:25:23.481Z,70.83
2018-04-14T15:27:53.147Z,64.80
2018-04-14T15:30:21.634Z,72.63
2018-04-14T15:32:50.194Z,70.77
2018-04-14T15:35:18.694Z,76.10
2018-04-14T15:37:47.193Z,69.77
2018-04-14T15:40:15.776Z,75.30
2018-04-14T15:42:44.375Z,81.60
2018-04-14T15:45:13.063Z,64.40
2018-04-14T15:47:41.561Z,76.53
2018-04-14T15:50:10.051Z,69.40
2018-04-14T15:52:38.548Z,69.23
2018-04-14T15:55:07.028Z,70.83
2018-04-14T15:57:35.453Z,70.63
2018-04-14T16:00:03.606Z,69.97
2018-04-14T16:02:32.165Z,71.03
2018-04-14T16:05:00.848Z,71.53
2018-04-14T16:07:29.501Z,77.57
2018-04-14T16:09:58.168Z,73.57
2018-04-14T16:12:26.663Z,65.63
2018-04-14T16:14:55.100Z,71.47
2018-04-14T16:17:23.637Z,70.33
2018-04-14T16:19:52.138Z,64.23
2018-04-14T16:22:20.642Z,69.47
2018-04-14T16:24:49.103Z,76.73
2018-04-14T16:27:17.783Z,73.33
2018-04-14T16:29:46.265Z,65.80
2018-04-14T16:32:15.204Z,79.10
2018-04-14T16:34:43.695Z,70.30
2018-04-14T16:37:12.186Z,72.40
2018-04-14T16:39:40.737Z,62.40
2018-04-14T16:42:10.463Z,82.80
2018-04-14T16:44:39.040Z,69.70
2018-04-14T16:47:07.771Z,66.20
2018-04-14T16:49:36.303Z,78.50
2018-04-14T16:52:04.472Z,62.67
2018-04-14T16:54:32.970Z,64.90
2018-04-14T16:57:01.539Z,72.93
2018-04-14T16:59:30.030Z,65.80
2018-04-14T17:01:59.366Z,73.77
2018-04-14T17:04:27.860Z,68.13
2018-04-14T17:06:56.292Z,63.80
2018-04-14T17:09:24.644Z,64.10
2018-04-14T17:11:53.406Z,63.57
2018-04-14T17:14:21.884Z,68.00
2018-04-14T17:16:50.516Z,70.50
2018-04-14T17:19:19.269Z,70.50
2018-04-14T17:21:48.464Z,64.50
2018-04-14T17:24:17.019Z,72.37
2018-04-14T17:26:45.590Z,65.70
2018-04-14T17:29:15.007Z,61.50
2018-04-14T17:31:43.594Z,58.87
2018-04-14T17:34:12.329Z,59.60
2018-04-14T17:36:40.835Z,68.20
2018-04-14T17:39:09.446Z,74.60
2018-04-14T17:41:37.943Z,66.77
2018-04-14T17:44:06.402Z,68.87
2018-04-14T17:46:35.680Z,61.50
2018-04-14T17:49:03.974Z,60.20
2018-04-14T17:51:32.453Z,62.87
2018-04-14T17:54:00.928Z,82.60
2018-04-14T17:56:36.155Z,65.33
2018-04-14T17:59:04.546Z,65.17
2018-04-14T18:01:32.838Z,66.47
2018-04-14T18:04:02.113Z,62.97
2018-04-14T18:06:30.590Z,71.00
2018-04-14T18:08:59.092Z,64.77
2018-04-14T18:11:28.001Z,69.70
2018-04-14T18:13:56.544Z,68.57
2018-04-14T18:16:25.343Z,65.90
2018-04-14T18:18:54.000Z,63.80
2018-04-14T18:21:22.622Z,71.33
2018-04-14T18:23:51.140Z,65.73
2018-04-14T18:26:19.668Z,74.10
2018-04-14T18:28:48.196Z,64.80
2018-04-14T18:31:18.431Z,69.30
2018-04-14T18:33:47.919Z,69.87
2018-04-14T18:36:20.558Z,61.80
2018-04-14T18:38:49.383Z,66.93
2018-04-14T18:41:17.967Z,61.10
2018-04-14T18:43:47.601Z,59.10
2018-04-14T18:46:16.290Z,55.37
2018-04-14T18:48:47.762Z,53.77
2018-04-14T18:51:16.726Z,62.03
2018-04-14T18:53:46.089Z,64.07
2018-04-14T18:56:19.608Z,61.60
2018-04-14T18:58:54.168Z,69.70
2018-04-14T19:01:40.692Z,64.73
2018-04-14T19:04:09.167Z,73.57
2018-04-14T19:06:39.591Z,65.13
2018-04-14T19:09:08.204Z,67.63
2018-04-14T19:11:36.866Z,65.43
2018-04-14T19:14:05.653Z,64.50
2018-04-14T19:16:34.222Z,68.87
2018-04-14T19:19:02.710Z,68.73
2018-04-14T19:21:32.138Z,76.77
2018-04-14T19:24:00.674Z,65.70
2018-04-14T19:26:29.713Z,56.53
2018-04-14T19:28:58.390Z,67.07
2018-04-14T19:31:28.056Z,67.83
2018-04-14T19:33:56.605Z,60.80
2018-04-14T19:36:26.398Z,55.80
2018-04-14T19:38:54.991Z,62.07
2018-04-14T19:41:23.470Z,60.63
2018-04-14T19:43:52.494Z,68.27
2018-04-14T19:46:21.805Z,59.20
2018-04-14T19:48:50.701Z,63.53
2018-04-14T19:51:19.389Z,62.47
2018-04-14T19:53:47.889Z,62.70
2018-04-14T19:56:16.361Z,63.10
2018-04-14T19:58:45.045Z,60.80
2018-04-14T20:01:13.627Z,65.43
2018-04-14T20:03:46.355Z,61.20
2018-04-14T20:06:14.861Z,62.37
2018-04-14T20:08:43.306Z,61.47
2018-04-14T20:11:12.590Z,67.17
2018-04-14T20:13:41.167Z,72.77
2018-04-14T20:16:09.698Z,70.50
2018-04-14T20:18:41.219Z,74.17
2018-04-14T20:21:09.779Z,66.80
2018-04-14T20:23:38.311Z,64.67
2018-04-14T20:26:07.032Z,75.20
2018-04-14T20:28:35.620Z,71.87
2018-04-14T20:31:04.217Z,70.10
2018-04-14T20:33:33.092Z,63.80
2018-04-14T20:36:01.862Z,67.57
2018-04-14T20:38:30.351Z,72.33
2018-04-14T20:40:59.611Z,64.20
2018-04-14T20:43:28.122Z,74.63
2018-04-14T20:45:56.618Z,62.80
2018-04-14T20:48:25.768Z,65.20
2018-04-14T20:50:54.387Z,58.77
2018-04-14T20:53:22.839Z,68.43
2018-04-14T20:55:51.464Z,68.27
2018-04-14T20:58:20.589Z,61.67
2018-04-14T21:00:49.172Z,61.10
2018-04-14T21:03:17.772Z,55.60
2018-04-14T21:05:47.364Z,52.90
2018-04-14T21:08:15.931Z,55.47
2018-04-14T21:10:44.464Z,45.20
2018-04-14T21:13:12.939Z,43.07
2018-04-14T21:15:42.254Z,29.00
2018-04-14T21:18:10.862Z,23.50
2018-04-14T21:20:39.465Z,17.07
2018-04-14T21:23:07.892Z,14.70
2018-04-14T21:25:36.521Z,10.07
2018-04-14T21:28:07.044Z,14.60
2018-04-14T21:30:35.623Z,10.27
2018-04-14T21:33:04.224Z,8.30
2018-04-14T21:35:32.890Z,4.20
2018-04-14T21:38:01.503Z,3.27
2018-04-14T21:40:31.295Z,3.33
2018-04-14T21:42:59.894Z,4.27
2018-04-14T21:45:29.165Z,3.50
2018-04-14T21:47:57.819Z,3.10
2018-04-14T21:50:26.694Z,3.03
2018-04-14T21:53:02.009Z,3.60
2018-04-14T21:55:30.570Z,2.07
2018-04-14T21:57:59.281Z,3.17
2018-04-14T22:00:27.852Z,2.27
2018-04-14T22:02:56.369Z,3.27
2018-04-14T22:05:24.882Z,2.57
2018-04-14T22:07:53.457Z,4.83
2018-04-14T22:10:25.360Z,2.43
2018-04-14T22:12:56.513Z,2.27
2018-04-14T22:15:29.743Z,2.93
2018-04-14T22:17:58.307Z,3.13
2018-04-14T22:20:27.137Z,3.47
2018-04-14T22:23:09.160Z,2.40
2018-04-14T22:25:38.921Z,3.00
2018-04-14T22:28:07.482Z,3.23
2018-04-14T22:30:37.181Z,3.50
2018-04-14T22:33:06.803Z,2.63
2018-04-14T22:35:36.135Z,3.27
2018-04-14T22:38:04.666Z,3.50
2018-04-14T22:40:34.734Z,4.37
2018-04-14T22:43:03.333Z,3.17
2018-04-14T22:45:31.917Z,2.60
2018-04-14T22:48:01.406Z,3.70
2018-04-14T22:50:29.923Z,2.83
2018-04-14T22:52:58.661Z,3.73
2018-04-14T22:55:27.188Z,3.13
2018-04-14T22:57:55.738Z,2.30
2018-04-14T23:00:24.438Z,3.57
2018-04-14T23:02:53.284Z,6.10
2018-04-14T23:05:22.615Z,2.60
2018-04-14T23:07:52.078Z,3.93
2018-04-14T23:10:20.638Z,5.00
2018-04-14T23:12:49.521Z,2.97
2018-04-14T23:15:18.801Z,4.23
2018-04-14T23:17:46.992Z,3.10
2018-04-14T23:20:15.494Z,4.43
2018-04-14T23:22:44.875Z,10.43
2018-04-14T23:25:14.221Z,4.80
2018-04-14T23:27:43.471Z,2.90
2018-04-14T23:30:13.232Z,4.77
2018-04-14T23:32:42.165Z,3.97
2018-04-14T23:35:11.016Z,2.60
2018-04-14T23:37:39.855Z,5.03
2018-04-14T23:40:08.398Z,4.80
2018-04-14T23:42:37.868Z,3.47
2018-04-14T23:45:12.462Z,3.30
2018-04-14T23:47:41.155Z,8.83
2018-04-14T23:50:10.371Z,3.93
2018-04-14T23:52:39.000Z,3.10
2018-04-14T23:55:09.118Z,4.20
2018-04-14T23:57:37.640Z,3.57
